TAF Text Data
IDs:
Format:
Raw Decoded Include METAR

Data at: 0746 UTC 07 Dec 2022

KRSW 070523Z 0706/0806 VRB03KT P6SM FEW050
  FM071500 06007KT P6SM SCT050 SCT250
  FM080100 VRB03KT P6SM FEW050